createdAt,value
2019-01-25T00:02:42.717Z,-1.90
2019-01-25T00:07:58.370Z,-2.11
2019-01-25T00:13:09.203Z,-2.03
2019-01-25T00:18:23.823Z,-1.93
2019-01-25T00:23:44.394Z,-1.73
2019-01-25T00:28:54.391Z,-2.22
2019-01-25T00:34:06.707Z,-2.13
2019-01-25T00:39:16.062Z,-2.02
2019-01-25T00:44:27.152Z,-1.88
2019-01-25T00:49:34.645Z,-1.96
2019-01-25T00:54:52.124Z,-2.05
2019-01-25T01:00:04.402Z,-2.01
2019-01-25T01:05:17.016Z,-2.31
2019-01-25T01:10:28.596Z,-2.41
2019-01-25T01:15:59.324Z,-2.31
2019-01-25T01:21:08.930Z,-2.31
2019-01-25T01:26:18.469Z,-2.21
2019-01-25T01:31:36.081Z,-2.61
2019-01-25T01:36:49.177Z,-2.37
2019-01-25T01:41:58.864Z,-2.48
2019-01-25T01:47:14.520Z,-2.67
2019-01-25T01:52:35.282Z,-2.90
2019-01-25T01:57:47.225Z,-2.59
2019-01-25T02:03:01.266Z,-2.52
2019-01-25T02:08:10.556Z,-2.37
2019-01-25T02:13:19.047Z,-2.38
2019-01-25T02:18:28.812Z,-2.34
2019-01-25T02:23:40.627Z,-2.38
2019-01-25T02:28:49.818Z,-2.11
2019-01-25T02:34:02.643Z,-2.12
2019-01-25T02:39:32.662Z,-2.02
2019-01-25T02:44:43.901Z,-2.18
2019-01-25T02:49:55.938Z,-2.02
2019-01-25T02:55:09.629Z,-1.94
2019-01-25T03:00:25.109Z,-1.91
2019-01-25T03:05:37.054Z,-1.84
2019-01-25T03:10:50.777Z,-1.87
2019-01-25T03:16:02.256Z,-1.90
2019-01-25T03:21:17.082Z,-1.98
2019-01-25T03:26:26.426Z,-1.90
2019-01-25T03:31:39.326Z,-1.88
2019-01-25T03:36:50.356Z,-1.82
2019-01-25T03:41:58.099Z,-2.16
2019-01-25T03:47:07.805Z,-2.35
2019-01-25T03:52:21.688Z,-2.59
2019-01-25T03:57:31.253Z,-2.38
2019-01-25T04:02:42.359Z,-2.28
2019-01-25T04:08:05.303Z,-2.53
2019-01-25T04:13:13.761Z,-2.17
2019-01-25T04:18:26.258Z,-2.13
2019-01-25T04:23:37.171Z,-2.21
2019-01-25T04:28:47.381Z,-2.25
2019-01-25T04:33:57.648Z,-2.27
2019-01-25T04:39:08.038Z,-2.27
2019-01-25T04:44:16.831Z,-2.31
2019-01-25T04:49:29.973Z,-2.29
2019-01-25T04:54:37.061Z,-2.29
2019-01-25T04:59:53.165Z,-2.45
2019-01-25T05:05:00.808Z,-2.50
2019-01-25T05:10:13.014Z,-2.29
2019-01-25T05:15:24.884Z,-2.19
2019-01-25T05:20:36.745Z,-2.21
2019-01-25T05:25:46.823Z,-2.54
2019-01-25T05:31:02.582Z,-2.65
2019-01-25T05:36:16.413Z,-2.57
2019-01-25T05:42:25.666Z,-2.71
2019-01-25T05:47:32.656Z,-2.58
2019-01-25T05:52:43.313Z,-2.40
2019-01-25T05:57:57.328Z,-2.36
2019-01-25T06:03:17.163Z,-2.76
2019-01-25T06:08:31.457Z,-2.62
2019-01-25T06:13:40.326Z,-2.38
2019-01-25T06:18:51.764Z,-2.25
2019-01-25T06:24:00.007Z,-2.32
2019-01-25T06:29:12.038Z,-2.30
2019-01-25T06:34:25.716Z,-2.22
2019-01-25T06:39:35.868Z,-2.28
2019-01-25T06:44:44.071Z,-2.43
2019-01-25T06:49:57.051Z,-2.56
2019-01-25T06:55:12.810Z,-2.58
2019-01-25T07:00:23.597Z,-2.61
2019-01-25T07:05:35.612Z,-2.68
2019-01-25T07:10:44.885Z,-2.77
2019-01-25T07:15:58.512Z,-2.60
2019-01-25T07:21:10.519Z,-2.51
2019-01-25T07:26:21.798Z,-2.45
2019-01-25T07:31:33.561Z,-2.59
2019-01-25T07:36:46.585Z,-2.51
2019-01-25T07:41:59.627Z,-2.40
2019-01-25T07:47:15.399Z,-2.38
2019-01-25T07:52:28.303Z,-2.55
2019-01-25T07:57:38.407Z,-2.57
2019-01-25T08:02:47.743Z,-2.41
2019-01-25T08:08:01.341Z,-2.44
2019-01-25T08:13:09.127Z,-2.49
2019-01-25T08:18:21.393Z,-2.34
2019-01-25T08:29:00.974Z,-2.09
2019-01-25T08:34:14.108Z,-2.03
2019-01-25T08:39:22.397Z,-2.23
2019-01-25T08:44:37.749Z,-2.18
2019-01-25T08:49:48.114Z,-1.99
2019-01-25T08:55:02.419Z,-2.01
2019-01-25T09:00:17.776Z,-2.24
2019-01-25T09:05:25.367Z,-2.10
2019-01-25T09:10:39.073Z,-1.76
2019-01-25T09:15:48.378Z,-1.52
2019-01-25T09:21:03.070Z,-1.28
2019-01-25T09:26:12.073Z,-1.45
2019-01-25T09:31:22.133Z,-1.48
2019-01-25T09:36:32.231Z,-1.26
2019-01-25T09:41:44.302Z,-1.33
2019-01-25T09:46:53.552Z,-1.20
2019-01-25T09:52:04.136Z,-1.23
2019-01-25T09:57:15.178Z,-1.03
2019-01-25T10:02:28.185Z,-1.05
2019-01-25T10:07:38.286Z,-0.93
2019-01-25T10:12:50.698Z,-0.90
2019-01-25T10:18:06.131Z,-0.62
2019-01-25T10:23:15.839Z,-0.78
2019-01-25T10:33:56.129Z,-0.44
2019-01-25T10:39:11.141Z,-0.38
2019-01-25T10:44:24.172Z,-0.43
2019-01-25T10:49:33.152Z,-0.38
2019-01-25T10:54:50.071Z,-0.36
2019-01-25T10:59:56.639Z,-0.03
2019-01-25T11:05:09.736Z,0.01
2019-01-25T11:10:17.280Z,0.20
2019-01-25T11:15:27.465Z,0.34
2019-01-25T11:20:36.709Z,0.37
2019-01-25T11:25:44.826Z,0.47
2019-01-25T11:31:01.385Z,0.57
2019-01-25T11:36:18.298Z,0.21
2019-01-25T11:41:27.440Z,0.25
2019-01-25T11:46:40.594Z,0.34
2019-01-25T11:51:52.519Z,0.35
2019-01-25T11:57:00.415Z,0.22
2019-01-25T12:02:10.801Z,0.33
2019-01-25T12:07:22.348Z,0.53
2019-01-25T12:12:32.944Z,0.58
2019-01-25T12:17:46.067Z,0.66
2019-01-25T12:22:53.764Z,0.86
2019-01-25T12:28:07.694Z,0.66
2019-01-25T12:33:19.875Z,0.61
2019-01-25T12:38:30.131Z,0.68
2019-01-25T12:43:38.843Z,0.71
2019-01-25T12:48:52.023Z,0.63
2019-01-25T12:54:04.483Z,0.76
2019-01-25T12:59:14.939Z,0.74
2019-01-25T13:04:22.512Z,0.77
2019-01-25T13:09:30.646Z,0.68
2019-01-25T13:14:43.055Z,0.87
2019-01-25T13:19:56.895Z,0.80
2019-01-25T13:25:07.956Z,1.01
2019-01-25T13:30:20.982Z,0.66
2019-01-25T13:35:36.472Z,0.66
2019-01-25T13:40:52.256Z,0.74
2019-01-25T13:46:22.851Z,0.77
2019-01-25T13:51:30.929Z,0.72
2019-01-25T13:56:46.296Z,0.69
2019-01-25T14:01:57.145Z,0.67
2019-01-25T14:07:28.085Z,0.66
2019-01-25T14:12:40.194Z,0.67
2019-01-25T14:17:51.119Z,0.66
2019-01-25T14:23:04.627Z,0.63
2019-01-25T14:28:33.456Z,0.66
2019-01-25T14:33:44.766Z,0.67
2019-01-25T14:38:59.404Z,0.72
2019-01-25T14:44:11.890Z,0.72
2019-01-25T14:49:21.805Z,0.64
2019-01-25T14:54:30.484Z,0.63
2019-01-25T14:59:43.926Z,0.63
2019-01-25T15:04:53.386Z,0.70
2019-01-25T15:10:09.447Z,0.68
2019-01-25T15:15:22.944Z,0.67
2019-01-25T15:20:34.763Z,0.65
2019-01-25T15:25:46.038Z,0.69
2019-01-25T15:30:54.796Z,0.71
2019-01-25T15:36:02.771Z,0.73
2019-01-25T15:41:20.073Z,0.72
2019-01-25T15:46:31.385Z,0.71
2019-01-25T15:51:39.918Z,0.71
2019-01-25T15:56:49.868Z,0.74
2019-01-25T16:02:03.593Z,0.70
2019-01-25T16:07:18.040Z,0.71
2019-01-25T16:12:32.719Z,0.73
2019-01-25T16:17:43.382Z,0.76
2019-01-25T16:23:16.222Z,0.77
2019-01-25T16:28:27.762Z,0.86
2019-01-25T16:33:41.029Z,0.85
2019-01-25T16:38:52.272Z,0.92
2019-01-25T16:44:08.818Z,0.88
2019-01-25T16:49:20.253Z,0.93
2019-01-25T16:54:34.666Z,0.95
2019-01-25T16:59:42.051Z,0.97
2019-01-25T17:04:58.400Z,0.99
2019-01-25T17:10:14.552Z,0.99
2019-01-25T17:15:24.900Z,1.07
2019-01-25T17:20:38.258Z,1.11
2019-01-25T17:25:55.363Z,1.10
2019-01-25T17:31:03.920Z,1.22
2019-01-25T17:36:15.621Z,1.15
2019-01-25T17:41:28.507Z,1.16
2019-01-25T17:46:36.894Z,1.16
2019-01-25T17:51:49.230Z,1.17
2019-01-25T17:57:03.817Z,1.17
2019-01-25T18:02:16.173Z,1.18
2019-01-25T18:07:28.432Z,1.19
2019-01-25T18:12:40.458Z,1.26
2019-01-25T18:17:56.420Z,1.23
2019-01-25T18:23:14.142Z,1.29
2019-01-25T18:28:31.284Z,1.29
2019-01-25T18:33:44.589Z,1.33
2019-01-25T18:38:58.898Z,1.33
2019-01-25T18:44:12.054Z,1.36
2019-01-25T18:49:37.315Z,1.36
2019-01-25T18:54:50.781Z,1.36
2019-01-25T19:00:02.942Z,1.39
2019-01-25T19:05:15.491Z,1.43
2019-01-25T19:10:31.910Z,1.46
2019-01-25T19:15:46.810Z,1.46
2019-01-25T19:21:01.080Z,1.50
2019-01-25T19:26:13.717Z,1.52
2019-01-25T19:31:30.944Z,1.56
2019-01-25T19:36:52.192Z,1.62
2019-01-25T19:42:35.920Z,1.64
2019-01-25T19:48:32.488Z,1.67
2019-01-25T19:53:58.428Z,1.74
2019-01-25T19:59:38.313Z,1.76
2019-01-25T20:04:53.569Z,1.79
2019-01-25T20:10:20.888Z,1.86
2019-01-25T20:15:48.537Z,1.94
2019-01-25T20:21:35.173Z,2.07
2019-01-25T20:26:47.269Z,2.04
2019-01-25T20:31:57.904Z,2.11
2019-01-25T20:37:08.189Z,2.16
2019-01-25T20:42:20.015Z,2.19
2019-01-25T20:47:32.422Z,2.30
2019-01-25T20:52:44.372Z,2.32
2019-01-25T20:57:54.248Z,2.39
2019-01-25T21:26:22.797Z,2.74
2019-01-25T21:31:32.766Z,2.72
2019-01-25T21:36:43.526Z,2.80
2019-01-25T21:41:57.162Z,2.77
2019-01-25T21:47:08.997Z,2.79
2019-01-25T21:52:18.826Z,2.90
2019-01-25T21:57:28.678Z,2.93
2019-01-25T22:02:41.516Z,3.02
2019-01-25T22:07:52.394Z,3.08
2019-01-25T22:13:04.407Z,3.13
2019-01-25T22:18:13.417Z,3.16
2019-01-25T22:23:21.969Z,3.27
2019-01-25T22:28:32.294Z,3.36
2019-01-25T22:33:41.394Z,3.41
2019-01-25T22:38:50.785Z,3.48
2019-01-25T22:44:06.548Z,3.52
2019-01-25T22:49:15.657Z,3.59
2019-01-25T22:54:29.892Z,3.65
2019-01-25T22:59:38.978Z,3.68
2019-01-25T23:05:17.715Z,3.75
2019-01-25T23:10:32.538Z,3.78
2019-01-25T23:15:42.434Z,3.88
2019-01-25T23:20:55.199Z,3.91
2019-01-25T23:26:03.786Z,4.21
2019-01-25T23:31:18.542Z,3.98
2019-01-25T23:36:31.188Z,4.02
2019-01-25T23:41:41.165Z,4.06
2019-01-25T23:46:48.185Z,4.11
2019-01-25T23:52:03.745Z,4.19
2019-01-25T23:57:10.811Z,4.15
